Terminal Aerodrome Forecast
Issued by NWS

Home | Current Version | Previous Version | Graphics & Text | Print | Product List | Glossary On
Versions: 1 2 3 4 5 6 7 8 9 10 11 12 13 14 15 16 17 18 19 20 21 22 23
000
FTUS42 KMHX 202330
TAFPGV
TAF
KPGV 202330Z 2100/2124 21004KT P6SM FEW020 BKN250
     FM211100 24004KT P6SM SCT012 BKN025
     FM211300 22005KT P6SM SCT040
     FM211900 25005KT P6SM BKN040
      AMD LTD TO CLD VIS AND WIND=

USA.gov is the U.S. government's official web portal to all federal, state and local government web resources and services.